sensor_id;sensor_type;location;lat;lon;timestamp;P1;durP1;ratioP1;P2;durP2;ratioP2
8139;SDS011;4111;50.972;7.072;2023-04-06T00:02:24;10.33;;;5.80;;
8139;SDS011;4111;50.972;7.072;2023-04-06T00:04:51;7.73;;;5.90;;
8139;SDS011;4111;50.972;7.072;2023-04-06T00:07:17;6.67;;;5.97;;
8139;SDS011;4111;50.972;7.072;2023-04-06T00:09:43;5.97;;;5.37;;
8139;SDS011;4111;50.972;7.072;2023-04-06T00:12:10;6.37;;;5.77;;
8139;SDS011;4111;50.972;7.072;2023-04-06T00:14:37;6.70;;;5.90;;
8139;SDS011;4111;50.972;7.072;2023-04-06T00:17:03;8.87;;;6.57;;
8139;SDS011;4111;50.972;7.072;2023-04-06T00:19:30;8.47;;;6.40;;
8139;SDS011;4111;50.972;7.072;2023-04-06T00:21:56;7.47;;;6.07;;
8139;SDS011;4111;50.972;7.072;2023-04-06T00:24:23;9.87;;;6.67;;
8139;SDS011;4111;50.972;7.072;2023-04-06T00:26:49;10.00;;;6.77;;
8139;SDS011;4111;50.972;7.072;2023-04-06T00:29:16;8.30;;;6.60;;
8139;SDS011;4111;50.972;7.072;2023-04-06T00:31:42;11.17;;;7.23;;
8139;SDS011;4111;50.972;7.072;2023-04-06T00:34:09;9.00;;;7.00;;
8139;SDS011;4111;50.972;7.072;2023-04-06T00:36:36;9.93;;;6.40;;
8139;SDS011;4111;50.972;7.072;2023-04-06T00:39:02;9.57;;;6.93;;
8139;SDS011;4111;50.972;7.072;2023-04-06T00:41:29;10.17;;;5.70;;
8139;SDS011;4111;50.972;7.072;2023-04-06T00:43:56;7.63;;;5.83;;
8139;SDS011;4111;50.972;7.072;2023-04-06T00:46:22;10.23;;;6.93;;
8139;SDS011;4111;50.972;7.072;2023-04-06T00:48:49;8.43;;;5.77;;
8139;SDS011;4111;50.972;7.072;2023-04-06T00:51:16;7.03;;;5.60;;
8139;SDS011;4111;50.972;7.072;2023-04-06T00:53:42;12.17;;;6.27;;
8139;SDS011;4111;50.972;7.072;2023-04-06T00:56:09;8.67;;;6.27;;
8139;SDS011;4111;50.972;7.072;2023-04-06T00:58:36;8.97;;;5.37;;
8139;SDS011;4111;50.972;7.072;2023-04-06T01:01:06;8.27;;;5.93;;
8139;SDS011;4111;50.972;7.072;2023-04-06T01:03:33;7.60;;;5.97;;
8139;SDS011;4111;50.972;7.072;2023-04-06T01:05:59;7.47;;;6.77;;
8139;SDS011;4111;50.972;7.072;2023-04-06T01:08:26;6.50;;;5.80;;
8139;SDS011;4111;50.972;7.072;2023-04-06T01:10:53;7.33;;;6.10;;
8139;SDS011;4111;50.972;7.072;2023-04-06T01:13:19;8.27;;;6.23;;
8139;SDS011;4111;50.972;7.072;2023-04-06T01:15:46;7.90;;;5.70;;
8139;SDS011;4111;50.972;7.072;2023-04-06T01:18:13;7.80;;;5.70;;
8139;SDS011;4111;50.972;7.072;2023-04-06T01:20:39;8.00;;;6.13;;
8139;SDS011;4111;50.972;7.072;2023-04-06T01:23:06;6.37;;;5.77;;
8139;SDS011;4111;50.972;7.072;2023-04-06T01:25:32;9.60;;;6.13;;
8139;SDS011;4111;50.972;7.072;2023-04-06T01:27:59;11.43;;;7.37;;
8139;SDS011;4111;50.972;7.072;2023-04-06T01:30:25;7.13;;;5.57;;
8139;SDS011;4111;50.972;7.072;2023-04-06T01:32:52;6.27;;;5.53;;
8139;SDS011;4111;50.972;7.072;2023-04-06T01:35:19;9.07;;;6.67;;
8139;SDS011;4111;50.972;7.072;2023-04-06T01:37:45;6.93;;;6.13;;
8139;SDS011;4111;50.972;7.072;2023-04-06T01:40:12;8.23;;;6.03;;
8139;SDS011;4111;50.972;7.072;2023-04-06T01:42:39;8.00;;;6.13;;
8139;SDS011;4111;50.972;7.072;2023-04-06T01:45:06;8.10;;;5.90;;
8139;SDS011;4111;50.972;7.072;2023-04-06T01:47:33;7.80;;;6.10;;
8139;SDS011;4111;50.972;7.072;2023-04-06T01:49:59;7.03;;;6.33;;
8139;SDS011;4111;50.972;7.072;2023-04-06T01:52:26;7.73;;;6.30;;
8139;SDS011;4111;50.972;7.072;2023-04-06T01:54:52;9.40;;;6.43;;
8139;SDS011;4111;50.972;7.072;2023-04-06T01:57:19;7.83;;;6.57;;
8139;SDS011;4111;50.972;7.072;2023-04-06T01:59:46;6.40;;;5.77;;
8139;SDS011;4111;50.972;7.072;2023-04-06T02:02:12;10.33;;;6.57;;
8139;SDS011;4111;50.972;7.072;2023-04-06T02:04:39;8.33;;;6.60;;
8139;SDS011;4111;50.972;7.072;2023-04-06T02:07:05;7.67;;;6.30;;
8139;SDS011;4111;50.972;7.072;2023-04-06T02:09:32;7.60;;;6.43;;
8139;SDS011;4111;50.972;7.072;2023-04-06T02:11:58;6.80;;;6.10;;
8139;SDS011;4111;50.972;7.072;2023-04-06T02:14:26;8.80;;;6.83;;
8139;SDS011;4111;50.972;7.072;2023-04-06T02:16:53;7.70;;;6.00;;
8139;SDS011;4111;50.972;7.072;2023-04-06T02:19:20;8.13;;;6.07;;
8139;SDS011;4111;50.972;7.072;2023-04-06T02:21:47;8.87;;;6.07;;
8139;SDS011;4111;50.972;7.072;2023-04-06T02:24:13;8.87;;;7.10;;
8139;SDS011;4111;50.972;7.072;2023-04-06T02:26:39;9.13;;;6.27;;
8139;SDS011;4111;50.972;7.072;2023-04-06T02:29:06;8.60;;;6.27;;
8139;SDS011;4111;50.972;7.072;2023-04-06T02:31:33;7.13;;;6.43;;
8139;SDS011;4111;50.972;7.072;2023-04-06T02:34:00;7.13;;;5.97;;
8139;SDS011;4111;50.972;7.072;2023-04-06T02:36:26;8.17;;;6.60;;
8139;SDS011;4111;50.972;7.072;2023-04-06T02:38:53;7.37;;;6.40;;
8139;SDS011;4111;50.972;7.072;2023-04-06T02:41:19;9.53;;;6.73;;
8139;SDS011;4111;50.972;7.072;2023-04-06T02:43:46;7.00;;;6.30;;
8139;SDS011;4111;50.972;7.072;2023-04-06T02:46:12;8.00;;;6.23;;
8139;SDS011;4111;50.972;7.072;2023-04-06T02:48:38;8.17;;;6.57;;
8139;SDS011;4111;50.972;7.072;2023-04-06T02:51:05;8.43;;;6.00;;
8139;SDS011;4111;50.972;7.072;2023-04-06T02:53:32;8.40;;;5.90;;
8139;SDS011;4111;50.972;7.072;2023-04-06T02:55:58;7.90;;;6.97;;
8139;SDS011;4111;50.972;7.072;2023-04-06T02:58:25;9.87;;;7.03;;
8139;SDS011;4111;50.972;7.072;2023-04-06T03:00:51;8.63;;;6.80;;
8139;SDS011;4111;50.972;7.072;2023-04-06T03:03:17;9.27;;;6.30;;
8139;SDS011;4111;50.972;7.072;2023-04-06T03:05:44;7.13;;;5.47;;
8139;SDS011;4111;50.972;7.072;2023-04-06T03:08:10;7.47;;;6.67;;
8139;SDS011;4111;50.972;7.072;2023-04-06T03:10:37;7.20;;;6.30;;
8139;SDS011;4111;50.972;7.072;2023-04-06T03:13:03;8.57;;;6.13;;
8139;SDS011;4111;50.972;7.072;2023-04-06T03:15:30;10.50;;;6.70;;
8139;SDS011;4111;50.972;7.072;2023-04-06T03:17:57;9.10;;;6.60;;
8139;SDS011;4111;50.972;7.072;2023-04-06T03:20:25;9.33;;;6.47;;
8139;SDS011;4111;50.972;7.072;2023-04-06T03:22:52;9.40;;;7.37;;
8139;SDS011;4111;50.972;7.072;2023-04-06T03:25:18;6.93;;;6.23;;
8139;SDS011;4111;50.972;7.072;2023-04-06T03:27:45;8.23;;;7.07;;
8139;SDS011;4111;50.972;7.072;2023-04-06T03:30:11;8.30;;;7.00;;
8139;SDS011;4111;50.972;7.072;2023-04-06T03:32:38;9.57;;;6.87;;
8139;SDS011;4111;50.972;7.072;2023-04-06T03:35:04;11.03;;;6.60;;
8139;SDS011;4111;50.972;7.072;2023-04-06T03:37:31;12.17;;;6.77;;
8139;SDS011;4111;50.972;7.072;2023-04-06T03:39:57;8.53;;;6.80;;
8139;SDS011;4111;50.972;7.072;2023-04-06T03:42:24;8.23;;;6.30;;
8139;SDS011;4111;50.972;7.072;2023-04-06T03:44:50;10.70;;;7.10;;
8139;SDS011;4111;50.972;7.072;2023-04-06T03:47:17;8.00;;;6.57;;
8139;SDS011;4111;50.972;7.072;2023-04-06T03:49:43;10.50;;;6.93;;
8139;SDS011;4111;50.972;7.072;2023-04-06T03:52:10;10.50;;;7.07;;
8139;SDS011;4111;50.972;7.072;2023-04-06T03:54:36;8.63;;;6.93;;
8139;SDS011;4111;50.972;7.072;2023-04-06T03:57:03;10.63;;;7.30;;
8139;SDS011;4111;50.972;7.072;2023-04-06T03:59:30;7.87;;;7.07;;
8139;SDS011;4111;50.972;7.072;2023-04-06T04:01:56;6.83;;;6.13;;
8139;SDS011;4111;50.972;7.072;2023-04-06T04:04:23;8.37;;;6.67;;
8139;SDS011;4111;50.972;7.072;2023-04-06T04:06:49;7.53;;;6.60;;
8139;SDS011;4111;50.972;7.072;2023-04-06T04:09:16;9.70;;;6.23;;
8139;SDS011;4111;50.972;7.072;2023-04-06T04:11:42;10.13;;;6.40;;
8139;SDS011;4111;50.972;7.072;2023-04-06T04:14:09;16.90;;;9.13;;
8139;SDS011;4111;50.972;7.072;2023-04-06T04:16:36;8.00;;;6.20;;
8139;SDS011;4111;50.972;7.072;2023-04-06T04:19:02;7.87;;;6.27;;
8139;SDS011;4111;50.972;7.072;2023-04-06T04:21:29;7.57;;;6.23;;
8139;SDS011;4111;50.972;7.072;2023-04-06T04:23:57;6.87;;;6.17;;
8139;SDS011;4111;50.972;7.072;2023-04-06T04:26:23;8.90;;;6.23;;
8139;SDS011;4111;50.972;7.072;2023-04-06T04:28:50;7.33;;;6.27;;
8139;SDS011;4111;50.972;7.072;2023-04-06T04:31:17;6.73;;;6.03;;
8139;SDS011;4111;50.972;7.072;2023-04-06T04:33:44;8.33;;;6.43;;
8139;SDS011;4111;50.972;7.072;2023-04-06T04:36:10;8.93;;;7.43;;
8139;SDS011;4111;50.972;7.072;2023-04-06T04:38:37;6.53;;;5.90;;
8139;SDS011;4111;50.972;7.072;2023-04-06T04:41:04;10.53;;;6.73;;
8139;SDS011;4111;50.972;7.072;2023-04-06T04:43:30;10.17;;;6.50;;
8139;SDS011;4111;50.972;7.072;2023-04-06T04:45:58;7.20;;;6.50;;
8139;SDS011;4111;50.972;7.072;2023-04-06T04:48:25;9.97;;;5.90;;
8139;SDS011;4111;50.972;7.072;2023-04-06T04:50:52;10.00;;;6.27;;
8139;SDS011;4111;50.972;7.072;2023-04-06T04:53:18;10.47;;;6.33;;
8139;SDS011;4111;50.972;7.072;2023-04-06T04:55:45;7.80;;;6.37;;
8139;SDS011;4111;50.972;7.072;2023-04-06T04:58:11;8.70;;;6.67;;
8139;SDS011;4111;50.972;7.072;2023-04-06T05:00:42;9.07;;;6.53;;
8139;SDS011;4111;50.972;7.072;2023-04-06T05:03:09;6.70;;;5.80;;
8139;SDS011;4111;50.972;7.072;2023-04-06T05:05:50;12.80;;;6.40;;
8139;SDS011;4111;50.972;7.072;2023-04-06T05:08:16;8.60;;;6.50;;
8139;SDS011;4111;50.972;7.072;2023-04-06T05:10:43;7.47;;;6.37;;
8139;SDS011;4111;50.972;7.072;2023-04-06T05:13:11;14.27;;;6.40;;
8139;SDS011;4111;50.972;7.072;2023-04-06T05:15:37;8.90;;;6.40;;
8139;SDS011;4111;50.972;7.072;2023-04-06T05:18:04;9.87;;;6.20;;
8139;SDS011;4111;50.972;7.072;2023-04-06T05:20:32;7.67;;;5.80;;
8139;SDS011;4111;50.972;7.072;2023-04-06T05:22:58;7.73;;;6.40;;
8139;SDS011;4111;50.972;7.072;2023-04-06T05:25:25;8.10;;;5.87;;
8139;SDS011;4111;50.972;7.072;2023-04-06T05:27:51;10.80;;;5.97;;
8139;SDS011;4111;50.972;7.072;2023-04-06T05:30:18;12.57;;;6.07;;
8139;SDS011;4111;50.972;7.072;2023-04-06T05:32:46;8.93;;;6.27;;
8139;SDS011;4111;50.972;7.072;2023-04-06T05:35:13;12.70;;;6.50;;
8139;SDS011;4111;50.972;7.072;2023-04-06T05:37:39;14.30;;;6.90;;
8139;SDS011;4111;50.972;7.072;2023-04-06T05:40:06;7.90;;;6.10;;
8139;SDS011;4111;50.972;7.072;2023-04-06T05:42:36;9.43;;;6.57;;
8139;SDS011;4111;50.972;7.072;2023-04-06T05:45:05;8.00;;;6.63;;
8139;SDS011;4111;50.972;7.072;2023-04-06T05:47:32;9.40;;;6.53;;
8139;SDS011;4111;50.972;7.072;2023-04-06T05:49:59;10.27;;;6.57;;
8139;SDS011;4111;50.972;7.072;2023-04-06T05:52:26;9.57;;;6.27;;
8139;SDS011;4111;50.972;7.072;2023-04-06T05:54:52;10.73;;;6.33;;
8139;SDS011;4111;50.972;7.072;2023-04-06T05:57:19;10.37;;;6.07;;
8139;SDS011;4111;50.972;7.072;2023-04-06T05:59:45;6.63;;;5.93;;
8139;SDS011;4111;50.972;7.072;2023-04-06T06:02:12;7.93;;;5.90;;
8139;SDS011;4111;50.972;7.072;2023-04-06T06:04:38;6.13;;;5.53;;
8139;SDS011;4111;50.972;7.072;2023-04-06T06:07:05;11.10;;;6.73;;
8139;SDS011;4111;50.972;7.072;2023-04-06T06:09:31;8.37;;;6.00;;
8139;SDS011;4111;50.972;7.072;2023-04-06T06:11:58;8.67;;;5.87;;
8139;SDS011;4111;50.972;7.072;2023-04-06T06:14:24;6.77;;;6.07;;
8139;SDS011;4111;50.972;7.072;2023-04-06T06:16:51;6.33;;;5.73;;
8139;SDS011;4111;50.972;7.072;2023-04-06T06:19:17;11.33;;;5.70;;
8139;SDS011;4111;50.972;7.072;2023-04-06T06:21:43;10.20;;;6.37;;
8139;SDS011;4111;50.972;7.072;2023-04-06T06:24:10;8.73;;;5.90;;
8139;SDS011;4111;50.972;7.072;2023-04-06T06:26:36;9.07;;;6.27;;
8139;SDS011;4111;50.972;7.072;2023-04-06T06:29:05;7.13;;;5.90;;
8139;SDS011;4111;50.972;7.072;2023-04-06T06:31:32;6.77;;;5.50;;
8139;SDS011;4111;50.972;7.072;2023-04-06T06:33:59;7.43;;;5.60;;
8139;SDS011;4111;50.972;7.072;2023-04-06T06:36:25;6.47;;;5.63;;
8139;SDS011;4111;50.972;7.072;2023-04-06T06:38:52;11.47;;;5.37;;
8139;SDS011;4111;50.972;7.072;2023-04-06T06:41:18;6.17;;;4.87;;
8139;SDS011;4111;50.972;7.072;2023-04-06T06:43:45;6.20;;;5.43;;
8139;SDS011;4111;50.972;7.072;2023-04-06T06:46:11;7.70;;;4.77;;
8139;SDS011;4111;50.972;7.072;2023-04-06T06:48:38;5.47;;;4.97;;
8139;SDS011;4111;50.972;7.072;2023-04-06T06:51:05;6.67;;;5.17;;
8139;SDS011;4111;50.972;7.072;2023-04-06T06:53:31;5.77;;;5.23;;
8139;SDS011;4111;50.972;7.072;2023-04-06T06:55:58;7.33;;;5.03;;
8139;SDS011;4111;50.972;7.072;2023-04-06T06:58:24;7.50;;;5.50;;
8139;SDS011;4111;50.972;7.072;2023-04-06T07:00:50;5.87;;;5.27;;
8139;SDS011;4111;50.972;7.072;2023-04-06T07:03:21;8.07;;;5.00;;
8139;SDS011;4111;50.972;7.072;2023-04-06T07:05:49;7.67;;;4.93;;
8139;SDS011;4111;50.972;7.072;2023-04-06T07:08:22;8.23;;;5.00;;
8139;SDS011;4111;50.972;7.072;2023-04-06T07:10:50;7.13;;;5.13;;
8139;SDS011;4111;50.972;7.072;2023-04-06T07:13:19;5.60;;;5.07;;
8139;SDS011;4111;50.972;7.072;2023-04-06T07:15:49;6.97;;;5.67;;
8139;SDS011;4111;50.972;7.072;2023-04-06T07:18:17;6.07;;;5.40;;
8139;SDS011;4111;50.972;7.072;2023-04-06T07:20:44;8.37;;;5.10;;
8139;SDS011;4111;50.972;7.072;2023-04-06T07:23:10;7.57;;;5.77;;
8139;SDS011;4111;50.972;7.072;2023-04-06T07:25:37;6.67;;;5.90;;
8139;SDS011;4111;50.972;7.072;2023-04-06T07:28:04;6.97;;;5.63;;
8139;SDS011;4111;50.972;7.072;2023-04-06T07:30:30;11.73;;;5.50;;
8139;SDS011;4111;50.972;7.072;2023-04-06T07:32:59;8.97;;;6.00;;
8139;SDS011;4111;50.972;7.072;2023-04-06T07:35:26;7.47;;;5.73;;
8139;SDS011;4111;50.972;7.072;2023-04-06T07:37:53;7.43;;;6.10;;
8139;SDS011;4111;50.972;7.072;2023-04-06T07:40:20;6.90;;;6.20;;
8139;SDS011;4111;50.972;7.072;2023-04-06T07:42:47;6.90;;;5.73;;
8139;SDS011;4111;50.972;7.072;2023-04-06T07:45:14;8.17;;;6.33;;
8139;SDS011;4111;50.972;7.072;2023-04-06T07:47:42;9.13;;;5.90;;
8139;SDS011;4111;50.972;7.072;2023-04-06T07:50:09;8.57;;;6.00;;
8139;SDS011;4111;50.972;7.072;2023-04-06T07:52:36;9.60;;;6.90;;
8139;SDS011;4111;50.972;7.072;2023-04-06T07:55:03;7.53;;;5.93;;
8139;SDS011;4111;50.972;7.072;2023-04-06T07:57:30;8.53;;;6.20;;
8139;SDS011;4111;50.972;7.072;2023-04-06T07:59:57;13.00;;;6.43;;
8139;SDS011;4111;50.972;7.072;2023-04-06T08:02:23;6.23;;;5.63;;
8139;SDS011;4111;50.972;7.072;2023-04-06T08:04:50;8.07;;;6.57;;
8139;SDS011;4111;50.972;7.072;2023-04-06T08:07:16;9.10;;;6.73;;
8139;SDS011;4111;50.972;7.072;2023-04-06T08:09:43;10.03;;;5.87;;
8139;SDS011;4111;50.972;7.072;2023-04-06T08:12:09;7.87;;;6.47;;
8139;SDS011;4111;50.972;7.072;2023-04-06T08:14:36;8.00;;;6.40;;
8139;SDS011;4111;50.972;7.072;2023-04-06T08:17:02;7.57;;;6.50;;
8139;SDS011;4111;50.972;7.072;2023-04-06T08:19:31;9.13;;;5.90;;
8139;SDS011;4111;50.972;7.072;2023-04-06T08:21:58;7.07;;;6.07;;
8139;SDS011;4111;50.972;7.072;2023-04-06T08:24:24;8.80;;;6.57;;
8139;SDS011;4111;50.972;7.072;2023-04-06T08:26:51;9.93;;;6.00;;
8139;SDS011;4111;50.972;7.072;2023-04-06T08:29:19;8.60;;;6.43;;
8139;SDS011;4111;50.972;7.072;2023-04-06T08:31:45;7.80;;;6.60;;
8139;SDS011;4111;50.972;7.072;2023-04-06T08:34:12;7.70;;;6.93;;
8139;SDS011;4111;50.972;7.072;2023-04-06T08:36:39;8.33;;;7.10;;
8139;SDS011;4111;50.972;7.072;2023-04-06T08:39:06;9.67;;;7.00;;
8139;SDS011;4111;50.972;7.072;2023-04-06T08:41:33;8.97;;;7.00;;
8139;SDS011;4111;50.972;7.072;2023-04-06T08:44:01;10.17;;;7.53;;
8139;SDS011;4111;50.972;7.072;2023-04-06T08:46:29;7.23;;;6.53;;
8139;SDS011;4111;50.972;7.072;2023-04-06T08:48:57;8.23;;;7.07;;
8139;SDS011;4111;50.972;7.072;2023-04-06T08:51:28;7.57;;;6.73;;
8139;SDS011;4111;50.972;7.072;2023-04-06T08:53:56;10.87;;;6.60;;
8139;SDS011;4111;50.972;7.072;2023-04-06T08:56:25;9.07;;;6.90;;
8139;SDS011;4111;50.972;7.072;2023-04-06T08:58:53;8.13;;;7.00;;
8139;SDS011;4111;50.972;7.072;2023-04-06T09:01:22;10.67;;;7.00;;
8139;SDS011;4111;50.972;7.072;2023-04-06T09:03:52;9.47;;;6.97;;
8139;SDS011;4111;50.972;7.072;2023-04-06T09:06:23;8.47;;;7.43;;
8139;SDS011;4111;50.972;7.072;2023-04-06T09:08:52;9.63;;;8.47;;
8139;SDS011;4111;50.972;7.072;2023-04-06T09:11:19;10.10;;;8.17;;
8139;SDS011;4111;50.972;7.072;2023-04-06T09:13:47;12.17;;;8.67;;
8139;SDS011;4111;50.972;7.072;2023-04-06T09:16:15;12.67;;;9.00;;
8139;SDS011;4111;50.972;7.072;2023-04-06T09:18:42;13.87;;;9.10;;
8139;SDS011;4111;50.972;7.072;2023-04-06T09:21:09;11.90;;;8.43;;
8139;SDS011;4111;50.972;7.072;2023-04-06T09:23:36;14.30;;;8.90;;
8139;SDS011;4111;50.972;7.072;2023-04-06T09:26:04;9.43;;;7.97;;
8139;SDS011;4111;50.972;7.072;2023-04-06T09:28:47;12.87;;;8.57;;
8139;SDS011;4111;50.972;7.072;2023-04-06T09:31:16;11.83;;;8.60;;
8139;SDS011;4111;50.972;7.072;2023-04-06T09:33:47;13.63;;;8.57;;
8139;SDS011;4111;50.972;7.072;2023-04-06T09:36:14;12.50;;;9.50;;
8139;SDS011;4111;50.972;7.072;2023-04-06T09:38:55;11.53;;;9.43;;
8139;SDS011;4111;50.972;7.072;2023-04-06T09:46:31;10.17;;;8.23;;
8139;SDS011;4111;50.972;7.072;2023-04-06T09:49:20;11.97;;;9.07;;
8139;SDS011;4111;50.972;7.072;2023-04-06T09:51:52;12.97;;;9.10;;
8139;SDS011;4111;50.972;7.072;2023-04-06T09:54:22;13.23;;;9.03;;
8139;SDS011;4111;50.972;7.072;2023-04-06T09:59:43;11.10;;;9.03;;
8139;SDS011;4111;50.972;7.072;2023-04-06T10:02:29;10.47;;;9.00;;
8139;SDS011;4111;50.972;7.072;2023-04-06T10:05:03;17.03;;;9.07;;
8139;SDS011;4111;50.972;7.072;2023-04-06T10:07:35;13.07;;;9.57;;
8139;SDS011;4111;50.972;7.072;2023-04-06T10:10:24;16.30;;;10.07;;
8139;SDS011;4111;50.972;7.072;2023-04-06T10:12:50;14.10;;;10.13;;
8139;SDS011;4111;50.972;7.072;2023-04-06T10:15:17;13.50;;;8.90;;
8139;SDS011;4111;50.972;7.072;2023-04-06T10:17:46;13.83;;;9.13;;
8139;SDS011;4111;50.972;7.072;2023-04-06T10:23:01;15.83;;;9.43;;
8139;SDS011;4111;50.972;7.072;2023-04-06T10:25:34;14.20;;;9.83;;
8139;SDS011;4111;50.972;7.072;2023-04-06T10:28:01;13.93;;;8.83;;
8139;SDS011;4111;50.972;7.072;2023-04-06T10:30:31;11.83;;;9.60;;
8139;SDS011;4111;50.972;7.072;2023-04-06T10:32:59;12.40;;;10.20;;
8139;SDS011;4111;50.972;7.072;2023-04-06T10:35:36;12.87;;;9.80;;
8139;SDS011;4111;50.972;7.072;2023-04-06T10:38:04;13.47;;;9.67;;
8139;SDS011;4111;50.972;7.072;2023-04-06T10:40:31;13.43;;;9.60;;
8139;SDS011;4111;50.972;7.072;2023-04-06T10:43:10;13.03;;;9.77;;
8139;SDS011;4111;50.972;7.072;2023-04-06T10:45:39;13.30;;;9.77;;
8139;SDS011;4111;50.972;7.072;2023-04-06T10:48:17;13.10;;;10.37;;
8139;SDS011;4111;50.972;7.072;2023-04-06T10:50:47;14.40;;;9.50;;
8139;SDS011;4111;50.972;7.072;2023-04-06T10:53:22;12.73;;;10.37;;
8139;SDS011;4111;50.972;7.072;2023-04-06T10:55:50;13.60;;;10.40;;
8139;SDS011;4111;50.972;7.072;2023-04-06T10:58:18;12.97;;;9.90;;
8139;SDS011;4111;50.972;7.072;2023-04-06T11:00:48;14.53;;;10.17;;
8139;SDS011;4111;50.972;7.072;2023-04-06T11:03:17;14.43;;;9.77;;
8139;SDS011;4111;50.972;7.072;2023-04-06T11:05:44;12.13;;;9.80;;
8139;SDS011;4111;50.972;7.072;2023-04-06T11:10:49;13.40;;;10.60;;
8139;SDS011;4111;50.972;7.072;2023-04-06T11:13:15;13.37;;;9.73;;
8139;SDS011;4111;50.972;7.072;2023-04-06T11:15:42;13.63;;;10.50;;
8139;SDS011;4111;50.972;7.072;2023-04-06T11:18:08;12.20;;;10.57;;
8139;SDS011;4111;50.972;7.072;2023-04-06T11:20:37;12.20;;;9.87;;
8139;SDS011;4111;50.972;7.072;2023-04-06T11:23:04;11.77;;;9.40;;
8139;SDS011;4111;50.972;7.072;2023-04-06T11:25:30;14.43;;;10.73;;
8139;SDS011;4111;50.972;7.072;2023-04-06T11:27:58;11.97;;;9.73;;
8139;SDS011;4111;50.972;7.072;2023-04-06T11:30:25;12.23;;;10.90;;
8139;SDS011;4111;50.972;7.072;2023-04-06T11:32:51;14.07;;;10.47;;
8139;SDS011;4111;50.972;7.072;2023-04-06T11:35:22;14.87;;;10.17;;
8139;SDS011;4111;50.972;7.072;2023-04-06T11:37:49;13.27;;;10.70;;
8139;SDS011;4111;50.972;7.072;2023-04-06T11:40:22;14.50;;;10.10;;
8139;SDS011;4111;50.972;7.072;2023-04-06T11:42:56;15.67;;;10.57;;
8139;SDS011;4111;50.972;7.072;2023-04-06T11:45:23;15.80;;;10.80;;
8139;SDS011;4111;50.972;7.072;2023-04-06T11:47:57;12.73;;;9.63;;
8139;SDS011;4111;50.972;7.072;2023-04-06T11:50:31;14.53;;;11.43;;
8139;SDS011;4111;50.972;7.072;2023-04-06T11:53:01;14.33;;;10.53;;
8139;SDS011;4111;50.972;7.072;2023-04-06T11:55:29;13.67;;;10.97;;
8139;SDS011;4111;50.972;7.072;2023-04-06T11:57:58;13.87;;;10.23;;
8139;SDS011;4111;50.972;7.072;2023-04-06T12:00:25;12.30;;;10.20;;
8139;SDS011;4111;50.972;7.072;2023-04-06T12:02:52;17.27;;;11.73;;
8139;SDS011;4111;50.972;7.072;2023-04-06T12:05:18;15.77;;;10.57;;
8139;SDS011;4111;50.972;7.072;2023-04-06T12:07:45;15.60;;;10.37;;
8139;SDS011;4111;50.972;7.072;2023-04-06T12:10:12;13.83;;;11.20;;
8139;SDS011;4111;50.972;7.072;2023-04-06T12:12:38;14.00;;;10.60;;
8139;SDS011;4111;50.972;7.072;2023-04-06T12:15:05;14.53;;;10.20;;
8139;SDS011;4111;50.972;7.072;2023-04-06T12:17:32;16.97;;;10.17;;
8139;SDS011;4111;50.972;7.072;2023-04-06T12:19:59;15.57;;;10.33;;
8139;SDS011;4111;50.972;7.072;2023-04-06T12:22:31;12.93;;;9.27;;
8139;SDS011;4111;50.972;7.072;2023-04-06T12:24:57;15.37;;;10.10;;
8139;SDS011;4111;50.972;7.072;2023-04-06T12:27:23;12.73;;;9.20;;
8139;SDS011;4111;50.972;7.072;2023-04-06T12:29:51;11.43;;;9.57;;
8139;SDS011;4111;50.972;7.072;2023-04-06T12:32:17;11.23;;;9.03;;
8139;SDS011;4111;50.972;7.072;2023-04-06T12:34:44;11.13;;;9.43;;
8139;SDS011;4111;50.972;7.072;2023-04-06T12:37:10;13.83;;;10.57;;
8139;SDS011;4111;50.972;7.072;2023-04-06T12:39:36;15.23;;;9.27;;
8139;SDS011;4111;50.972;7.072;2023-04-06T12:42:03;9.90;;;8.57;;
8139;SDS011;4111;50.972;7.072;2023-04-06T12:44:30;8.07;;;6.57;;
8139;SDS011;4111;50.972;7.072;2023-04-06T12:46:57;11.70;;;7.50;;
8139;SDS011;4111;50.972;7.072;2023-04-06T12:49:23;8.17;;;7.03;;
8139;SDS011;4111;50.972;7.072;2023-04-06T12:51:50;7.43;;;6.40;;
8139;SDS011;4111;50.972;7.072;2023-04-06T12:54:16;9.60;;;6.33;;
8139;SDS011;4111;50.972;7.072;2023-04-06T12:56:43;8.20;;;6.10;;
8139;SDS011;4111;50.972;7.072;2023-04-06T12:59:09;6.90;;;6.20;;
8139;SDS011;4111;50.972;7.072;2023-04-06T13:01:36;7.73;;;6.20;;
8139;SDS011;4111;50.972;7.072;2023-04-06T13:04:03;10.53;;;6.63;;
8139;SDS011;4111;50.972;7.072;2023-04-06T13:06:29;8.23;;;6.93;;
8139;SDS011;4111;50.972;7.072;2023-04-06T13:08:56;10.37;;;6.87;;
8139;SDS011;4111;50.972;7.072;2023-04-06T13:11:22;8.00;;;6.60;;
8139;SDS011;4111;50.972;7.072;2023-04-06T13:13:52;8.00;;;6.60;;
8139;SDS011;4111;50.972;7.072;2023-04-06T13:16:18;8.03;;;6.30;;
8139;SDS011;4111;50.972;7.072;2023-04-06T13:18:45;12.97;;;6.40;;
8139;SDS011;4111;50.972;7.072;2023-04-06T13:21:15;8.20;;;6.73;;
8139;SDS011;4111;50.972;7.072;2023-04-06T13:23:42;8.33;;;6.30;;
8139;SDS011;4111;50.972;7.072;2023-04-06T13:26:09;7.73;;;6.40;;
8139;SDS011;4111;50.972;7.072;2023-04-06T13:28:35;9.17;;;6.40;;
8139;SDS011;4111;50.972;7.072;2023-04-06T13:31:04;8.67;;;5.90;;
8139;SDS011;4111;50.972;7.072;2023-04-06T13:33:31;7.47;;;6.50;;
8139;SDS011;4111;50.972;7.072;2023-04-06T13:35:57;7.93;;;6.50;;
8139;SDS011;4111;50.972;7.072;2023-04-06T13:38:24;7.17;;;6.47;;
8139;SDS011;4111;50.972;7.072;2023-04-06T13:40:51;7.83;;;7.00;;
8139;SDS011;4111;50.972;7.072;2023-04-06T13:43:18;9.57;;;6.90;;
8139;SDS011;4111;50.972;7.072;2023-04-06T13:45:49;11.30;;;6.40;;
8139;SDS011;4111;50.972;7.072;2023-04-06T13:48:17;9.67;;;6.90;;
8139;SDS011;4111;50.972;7.072;2023-04-06T13:50:44;10.17;;;7.23;;
8139;SDS011;4111;50.972;7.072;2023-04-06T13:53:11;8.20;;;6.70;;
8139;SDS011;4111;50.972;7.072;2023-04-06T13:55:38;8.57;;;6.80;;
8139;SDS011;4111;50.972;7.072;2023-04-06T13:58:05;8.77;;;7.80;;
8139;SDS011;4111;50.972;7.072;2023-04-06T14:00:31;9.07;;;6.70;;
8139;SDS011;4111;50.972;7.072;2023-04-06T14:02:57;8.63;;;6.00;;
8139;SDS011;4111;50.972;7.072;2023-04-06T14:05:24;8.20;;;6.53;;
8139;SDS011;4111;50.972;7.072;2023-04-06T14:07:52;7.03;;;6.27;;
8139;SDS011;4111;50.972;7.072;2023-04-06T14:10:18;8.60;;;6.07;;
8139;SDS011;4111;50.972;7.072;2023-04-06T14:12:47;6.43;;;5.77;;
8139;SDS011;4111;50.972;7.072;2023-04-06T14:15:13;9.80;;;6.07;;
8139;SDS011;4111;50.972;7.072;2023-04-06T14:17:39;7.17;;;5.87;;
8139;SDS011;4111;50.972;7.072;2023-04-06T14:20:06;8.13;;;6.33;;
8139;SDS011;4111;50.972;7.072;2023-04-06T14:22:33;9.83;;;7.00;;
8139;SDS011;4111;50.972;7.072;2023-04-06T14:24:59;7.57;;;6.33;;
8139;SDS011;4111;50.972;7.072;2023-04-06T14:27:26;8.53;;;7.00;;
8139;SDS011;4111;50.972;7.072;2023-04-06T14:29:53;9.13;;;7.53;;
8139;SDS011;4111;50.972;7.072;2023-04-06T14:32:20;8.00;;;6.67;;
8139;SDS011;4111;50.972;7.072;2023-04-06T14:34:47;12.40;;;6.47;;
8139;SDS011;4111;50.972;7.072;2023-04-06T14:37:13;8.20;;;6.00;;
8139;SDS011;4111;50.972;7.072;2023-04-06T14:39:40;6.60;;;5.63;;
8139;SDS011;4111;50.972;7.072;2023-04-06T14:42:07;6.53;;;5.40;;
8139;SDS011;4111;50.972;7.072;2023-04-06T14:44:33;5.70;;;5.00;;
8139;SDS011;4111;50.972;7.072;2023-04-06T14:47:02;7.67;;;5.60;;
8139;SDS011;4111;50.972;7.072;2023-04-06T14:49:31;5.80;;;5.20;;
8139;SDS011;4111;50.972;7.072;2023-04-06T14:51:58;5.40;;;4.90;;
8139;SDS011;4111;50.972;7.072;2023-04-06T14:54:25;5.87;;;5.03;;
8139;SDS011;4111;50.972;7.072;2023-04-06T14:56:51;6.43;;;5.83;;
8139;SDS011;4111;50.972;7.072;2023-04-06T14:59:18;8.70;;;5.67;;
8139;SDS011;4111;50.972;7.072;2023-04-06T15:01:44;6.63;;;5.97;;
8139;SDS011;4111;50.972;7.072;2023-04-06T15:04:11;10.37;;;7.07;;
8139;SDS011;4111;50.972;7.072;2023-04-06T15:06:37;9.47;;;7.20;;
8139;SDS011;4111;50.972;7.072;2023-04-06T15:09:04;6.70;;;6.00;;
8139;SDS011;4111;50.972;7.072;2023-04-06T15:11:30;7.23;;;6.27;;
8139;SDS011;4111;50.972;7.072;2023-04-06T15:13:57;6.23;;;5.70;;
8139;SDS011;4111;50.972;7.072;2023-04-06T15:16:23;4.70;;;4.27;;
8139;SDS011;4111;50.972;7.072;2023-04-06T15:18:49;5.27;;;4.57;;
8139;SDS011;4111;50.972;7.072;2023-04-06T15:21:16;5.37;;;4.60;;
8139;SDS011;4111;50.972;7.072;2023-04-06T15:23:43;6.07;;;5.13;;
8139;SDS011;4111;50.972;7.072;2023-04-06T15:26:10;6.90;;;4.83;;